sensor_id;sensor_type;location;lat;lon;timestamp;pressure;altitude;pressure_sealevel;temperature;humidity
13050;BME280;6591;51.446;5.404;2023-03-03T00:01:34;102077.41;;;8.24;47.23
13050;BME280;6591;51.446;5.404;2023-03-03T00:04:01;102070.41;;;8.20;47.23
13050;BME280;6591;51.446;5.404;2023-03-03T00:06:28;102073.09;;;8.17;46.99
13050;BME280;6591;51.446;5.404;2023-03-03T00:08:56;102074.91;;;8.14;47.49
13050;BME280;6591;51.446;5.404;2023-03-03T00:11:25;102077.56;;;8.12;47.15
13050;BME280;6591;51.446;5.404;2023-03-03T00:13:54;102081.16;;;8.09;48.14
13050;BME280;6591;51.446;5.404;2023-03-03T00:16:37;102086.53;;;8.05;48.44
13050;BME280;6591;51.446;5.404;2023-03-03T00:19:18;102073.31;;;8.02;47.94
13050;BME280;6591;51.446;5.404;2023-03-03T00:21:48;102081.25;;;8.02;47.78
13050;BME280;6591;51.446;5.404;2023-03-03T00:24:37;102089.25;;;7.97;48.47
13050;BME280;6591;51.446;5.404;2023-03-03T00:27:34;102089.31;;;7.94;47.84
13050;BME280;6591;51.446;5.404;2023-03-03T00:30:22;102093.75;;;7.92;47.93
13050;BME280;6591;51.446;5.404;2023-03-03T00:32:52;102089.34;;;7.93;48.25
13050;BME280;6591;51.446;5.404;2023-03-03T00:35:30;102105.25;;;7.90;48.66
13050;BME280;6591;51.446;5.404;2023-03-03T00:38:14;102098.22;;;7.86;48.87
13050;BME280;6591;51.446;5.404;2023-03-03T00:40:47;102099.13;;;7.86;48.58
13050;BME280;6591;51.446;5.404;2023-03-03T00:43:28;102100.00;;;7.85;48.68
13050;BME280;6591;51.446;5.404;2023-03-03T00:46:00;102099.97;;;7.88;48.66
13050;BME280;6591;51.446;5.404;2023-03-03T00:48:41;102099.09;;;7.88;48.35
13050;BME280;6591;51.446;5.404;2023-03-03T00:51:30;102098.22;;;7.86;49.03
13050;BME280;6591;51.446;5.404;2023-03-03T00:53:58;102104.38;;;7.88;48.42
13050;BME280;6591;51.446;5.404;2023-03-03T00:56:26;102104.38;;;7.88;48.58
13050;BME280;6591;51.446;5.404;2023-03-03T00:58:53;102107.91;;;7.90;48.92
13050;BME280;6591;51.446;5.404;2023-03-03T01:01:21;102097.31;;;7.90;49.13
13050;BME280;6591;51.446;5.404;2023-03-03T01:03:53;102106.97;;;7.91;49.24
13050;BME280;6591;51.446;5.404;2023-03-03T01:06:20;102106.09;;;7.92;49.10
13050;BME280;6591;51.446;5.404;2023-03-03T01:08:47;102111.38;;;7.93;49.28
13050;BME280;6591;51.446;5.404;2023-03-03T01:11:21;102112.25;;;7.94;49.74
13050;BME280;6591;51.446;5.404;2023-03-03T01:13:51;102106.03;;;7.96;49.68
13050;BME280;6591;51.446;5.404;2023-03-03T01:16:20;102108.59;;;8.01;49.21
13050;BME280;6591;51.446;5.404;2023-03-03T01:18:47;102112.03;;;8.06;49.41
13050;BME280;6591;51.446;5.404;2023-03-03T01:21:14;102106.72;;;8.11;49.13
13050;BME280;6591;51.446;5.404;2023-03-03T01:23:41;102109.31;;;8.12;49.52
13050;BME280;6591;51.446;5.404;2023-03-03T01:26:08;102109.28;;;8.15;49.12
13050;BME280;6591;51.446;5.404;2023-03-03T01:28:35;102111.88;;;8.18;49.64
13050;BME280;6591;51.446;5.404;2023-03-03T01:31:04;102110.94;;;8.22;49.40
13050;BME280;6591;51.446;5.404;2023-03-03T01:33:35;102123.22;;;8.26;49.19
13050;BME280;6591;51.446;5.404;2023-03-03T01:36:03;102120.56;;;8.31;49.49
13050;BME280;6591;51.446;5.404;2023-03-03T01:38:30;102124.00;;;8.34;49.29
13050;BME280;6591;51.446;5.404;2023-03-03T01:40:59;102116.88;;;8.38;48.97
13050;BME280;6591;51.446;5.404;2023-03-03T01:43:32;102118.63;;;8.42;49.52
13050;BME280;6591;51.446;5.404;2023-03-03T01:48:39;102117.69;;;8.44;48.99
13050;BME280;6591;51.446;5.404;2023-03-03T01:51:22;102127.38;;;8.44;49.44
13050;BME280;6591;51.446;5.404;2023-03-03T01:54:05;102121.25;;;8.42;48.85
13050;BME280;6591;51.446;5.404;2023-03-03T01:56:37;102131.78;;;8.43;49.33
13050;BME280;6591;51.446;5.404;2023-03-03T01:59:13;102127.44;;;8.42;49.50
13050;BME280;6591;51.446;5.404;2023-03-03T02:01:41;102124.72;;;8.44;48.62
13050;BME280;6591;51.446;5.404;2023-03-03T02:04:09;102122.97;;;8.44;48.71
13050;BME280;6591;51.446;5.404;2023-03-03T02:06:43;102121.22;;;8.43;48.71
13050;BME280;6591;51.446;5.404;2023-03-03T02:12:00;102109.81;;;8.40;49.20
13050;BME280;6591;51.446;5.404;2023-03-03T02:14:30;102115.16;;;8.37;48.84
13050;BME280;6591;51.446;5.404;2023-03-03T02:16:58;102115.19;;;8.34;49.11
13050;BME280;6591;51.446;5.404;2023-03-03T02:19:42;102111.72;;;8.29;49.38
13050;BME280;6591;51.446;5.404;2023-03-03T02:22:15;102121.47;;;8.25;49.15
13050;BME280;6591;51.446;5.404;2023-03-03T02:24:53;102118.84;;;8.22;49.45
13050;BME280;6591;51.446;5.404;2023-03-03T02:27:23;102123.25;;;8.23;48.99
13050;BME280;6591;51.446;5.404;2023-03-03T02:29:50;102119.75;;;8.23;48.80
13050;BME280;6591;51.446;5.404;2023-03-03T02:32:18;102128.53;;;8.25;49.39
13050;BME280;6591;51.446;5.404;2023-03-03T02:34:49;102124.13;;;8.27;49.44
13050;BME280;6591;51.446;5.404;2023-03-03T02:37:17;102126.72;;;8.30;48.68
13050;BME280;6591;51.446;5.404;2023-03-03T02:39:45;102121.44;;;8.31;48.40
13050;BME280;6591;51.446;5.404;2023-03-03T02:42:25;102124.09;;;8.30;48.90
13050;BME280;6591;51.446;5.404;2023-03-03T02:44:57;102124.97;;;8.30;48.82
13050;BME280;6591;51.446;5.404;2023-03-03T02:47:24;102126.72;;;8.31;49.04
13050;BME280;6591;51.446;5.404;2023-03-03T02:49:51;102129.41;;;8.27;49.47
13050;BME280;6591;51.446;5.404;2023-03-03T02:52:18;102131.19;;;8.23;49.54
13050;BME280;6591;51.446;5.404;2023-03-03T02:54:46;102121.56;;;8.19;48.63
13050;BME280;6591;51.446;5.404;2023-03-03T02:57:13;102124.22;;;8.18;48.79
13050;BME280;6591;51.446;5.404;2023-03-03T02:59:40;102127.75;;;8.17;48.70
13050;BME280;6591;51.446;5.404;2023-03-03T03:02:11;102126.91;;;8.16;48.44
13050;BME280;6591;51.446;5.404;2023-03-03T03:04:38;102118.97;;;8.16;49.04
13050;BME280;6591;51.446;5.404;2023-03-03T03:07:06;102119.88;;;8.15;48.73
13050;BME280;6591;51.446;5.404;2023-03-03T03:09:36;102124.28;;;8.15;49.02
13050;BME280;6591;51.446;5.404;2023-03-03T03:12:03;102127.88;;;8.09;49.06
13050;BME280;6591;51.446;5.404;2023-03-03T03:14:33;102125.28;;;8.06;48.86
13050;BME280;6591;51.446;5.404;2023-03-03T03:17:00;102127.97;;;8.01;49.54
13050;BME280;6591;51.446;5.404;2023-03-03T03:19:27;102139.50;;;7.99;49.75
13050;BME280;6591;51.446;5.404;2023-03-03T03:22:00;102138.63;;;7.98;49.85
13050;BME280;6591;51.446;5.404;2023-03-03T03:24:28;102139.50;;;7.97;49.27
13050;BME280;6591;51.446;5.404;2023-03-03T03:27:01;102141.25;;;7.98;49.66
13050;BME280;6591;51.446;5.404;2023-03-03T03:29:28;102134.19;;;8.00;49.52
13050;BME280;6591;51.446;5.404;2023-03-03T03:31:57;102138.56;;;8.01;49.58
13050;BME280;6591;51.446;5.404;2023-03-03T03:34:24;102139.41;;;8.05;49.25
13050;BME280;6591;51.446;5.404;2023-03-03T03:36:53;102140.22;;;8.08;49.21
13050;BME280;6591;51.446;5.404;2023-03-03T03:39:22;102146.38;;;8.11;48.87
13050;BME280;6591;51.446;5.404;2023-03-03T03:41:51;102136.69;;;8.11;48.90
13050;BME280;6591;51.446;5.404;2023-03-03T03:44:19;102143.69;;;8.14;49.24
13050;BME280;6591;51.446;5.404;2023-03-03T03:46:47;102145.44;;;8.16;49.08
13050;BME280;6591;51.446;5.404;2023-03-03T03:49:14;102139.22;;;8.17;49.59
13050;BME280;6591;51.446;5.404;2023-03-03T03:51:41;102139.22;;;8.19;49.30
13050;BME280;6591;51.446;5.404;2023-03-03T03:54:12;102139.22;;;8.19;49.16
13050;BME280;6591;51.446;5.404;2023-03-03T03:56:40;102140.97;;;8.18;49.05
13050;BME280;6591;51.446;5.404;2023-03-03T03:59:08;102149.78;;;8.20;49.60
13050;BME280;6591;51.446;5.404;2023-03-03T04:01:36;102149.78;;;8.20;48.94
13050;BME280;6591;51.446;5.404;2023-03-03T04:04:03;102146.25;;;8.18;49.59
13050;BME280;6591;51.446;5.404;2023-03-03T04:06:31;102140.97;;;8.18;49.06
13050;BME280;6591;51.446;5.404;2023-03-03T04:08:59;102149.78;;;8.20;49.80
13050;BME280;6591;51.446;5.404;2023-03-03T04:11:28;102147.13;;;8.20;49.41
13050;BME280;6591;51.446;5.404;2023-03-03T04:13:56;102148.88;;;8.21;49.40
13050;BME280;6591;51.446;5.404;2023-03-03T04:16:24;102147.13;;;8.20;49.36
13050;BME280;6591;51.446;5.404;2023-03-03T04:18:51;102140.97;;;8.20;49.04
13050;BME280;6591;51.446;5.404;2023-03-03T04:21:19;102158.59;;;8.19;49.54
13050;BME280;6591;51.446;5.404;2023-03-03T04:23:47;102155.09;;;8.17;48.69
13050;BME280;6591;51.446;5.404;2023-03-03T04:26:16;102163.97;;;8.15;48.91
13050;BME280;6591;51.446;5.404;2023-03-03T04:28:43;102162.22;;;8.12;49.05
13050;BME280;6591;51.446;5.404;2023-03-03T04:31:11;102161.41;;;8.08;49.84
13050;BME280;6591;51.446;5.404;2023-03-03T04:33:38;102166.75;;;8.05;49.98
13050;BME280;6591;51.446;5.404;2023-03-03T04:36:07;102166.75;;;8.04;49.85
13050;BME280;6591;51.446;5.404;2023-03-03T04:38:34;102165.88;;;8.02;49.59
13050;BME280;6591;51.446;5.404;2023-03-03T04:41:02;102165.00;;;8.01;49.84
13050;BME280;6591;51.446;5.404;2023-03-03T04:43:33;102164.13;;;8.01;50.01
13050;BME280;6591;51.446;5.404;2023-03-03T04:46:02;102169.47;;;7.98;50.32
13050;BME280;6591;51.446;5.404;2023-03-03T04:48:30;102167.72;;;7.97;49.47
13050;BME280;6591;51.446;5.404;2023-03-03T04:50:57;102165.06;;;7.97;49.90
13050;BME280;6591;51.446;5.404;2023-03-03T04:53:25;102177.41;;;7.96;49.89
13050;BME280;6591;51.446;5.404;2023-03-03T04:55:53;102167.78;;;7.94;49.99
13050;BME280;6591;51.446;5.404;2023-03-03T04:58:21;102168.66;;;7.93;49.96
13050;BME280;6591;51.446;5.404;2023-03-03T05:00:55;102177.47;;;7.93;50.19
13050;BME280;6591;51.446;5.404;2023-03-03T05:03:26;102174.81;;;7.95;49.83
13050;BME280;6591;51.446;5.404;2023-03-03T05:05:53;102174.78;;;7.96;49.54
13050;BME280;6591;51.446;5.404;2023-03-03T05:08:21;102172.13;;;7.98;50.07
13050;BME280;6591;51.446;5.404;2023-03-03T05:10:53;102181.81;;;7.96;49.67
13050;BME280;6591;51.446;5.404;2023-03-03T05:13:20;102180.94;;;7.98;49.26
13050;BME280;6591;51.446;5.404;2023-03-03T05:15:53;102184.44;;;7.99;49.80
13050;BME280;6591;51.446;5.404;2023-03-03T05:18:23;102181.78;;;8.00;49.61
13050;BME280;6591;51.446;5.404;2023-03-03T05:20:51;102180.00;;;8.01;49.79
13050;BME280;6591;51.446;5.404;2023-03-03T05:23:19;102177.34;;;8.02;49.93
13050;BME280;6591;51.446;5.404;2023-03-03T05:25:48;102180.91;;;8.00;49.25
13050;BME280;6591;51.446;5.404;2023-03-03T05:28:17;102181.78;;;8.00;49.39
13050;BME280;6591;51.446;5.404;2023-03-03T05:30:45;102191.44;;;8.01;49.96
13050;BME280;6591;51.446;5.404;2023-03-03T05:33:15;102192.34;;;8.02;49.56
13050;BME280;6591;51.446;5.404;2023-03-03T05:35:43;102185.25;;;8.04;49.18
13050;BME280;6591;51.446;5.404;2023-03-03T05:38:11;102189.63;;;8.06;49.65
13050;BME280;6591;51.446;5.404;2023-03-03T05:40:38;102186.06;;;8.09;49.91
13050;BME280;6591;51.446;5.404;2023-03-03T05:43:05;102182.50;;;8.12;49.88
13050;BME280;6591;51.446;5.404;2023-03-03T05:45:34;102188.66;;;8.15;49.88
13050;BME280;6591;51.446;5.404;2023-03-03T05:48:01;102183.31;;;8.18;49.78
13050;BME280;6591;51.446;5.404;2023-03-03T05:50:29;102186.75;;;8.22;49.72
13050;BME280;6591;51.446;5.404;2023-03-03T05:52:57;102173.53;;;8.23;49.27
13050;BME280;6591;51.446;5.404;2023-03-03T05:55:24;102183.22;;;8.24;49.28
13050;BME280;6591;51.446;5.404;2023-03-03T05:57:51;102185.81;;;8.27;49.08
13050;BME280;6591;51.446;5.404;2023-03-03T06:00:19;102182.28;;;8.30;49.15
13050;BME280;6591;51.446;5.404;2023-03-03T06:02:46;102187.56;;;8.31;49.17
13050;BME280;6591;51.446;5.404;2023-03-03T06:05:13;102188.41;;;8.33;48.62
13050;BME280;6591;51.446;5.404;2023-03-03T06:07:40;102190.09;;;8.37;49.16
13050;BME280;6591;51.446;5.404;2023-03-03T06:10:08;102188.31;;;8.39;48.99
13050;BME280;6591;51.446;5.404;2023-03-03T06:12:39;102190.00;;;8.43;49.01
13050;BME280;6591;51.446;5.404;2023-03-03T06:15:10;102196.19;;;8.45;49.33
13050;BME280;6591;51.446;5.404;2023-03-03T06:17:38;102191.69;;;8.50;49.37
13050;BME280;6591;51.446;5.404;2023-03-03T06:20:06;102197.78;;;8.54;49.59
13050;BME280;6591;51.446;5.404;2023-03-03T06:22:42;102196.88;;;8.58;48.68
13050;BME280;6591;51.446;5.404;2023-03-03T06:25:10;102209.19;;;8.61;49.21
13050;BME280;6591;51.446;5.404;2023-03-03T06:27:37;102202.09;;;8.63;49.38
13050;BME280;6591;51.446;5.404;2023-03-03T06:30:04;102197.63;;;8.65;48.85
13050;BME280;6591;51.446;5.404;2023-03-03T06:32:32;102212.63;;;8.66;49.21
13050;BME280;6591;51.446;5.404;2023-03-03T06:34:59;102209.97;;;8.67;49.38
13050;BME280;6591;51.446;5.404;2023-03-03T06:37:26;102208.16;;;8.69;48.41
13050;BME280;6591;51.446;5.404;2023-03-03T06:39:53;102223.13;;;8.73;48.79
13050;BME280;6591;51.446;5.404;2023-03-03T06:42:20;102223.94;;;8.77;48.88
13050;BME280;6591;51.446;5.404;2023-03-03T06:44:47;102226.53;;;8.80;48.87
13050;BME280;6591;51.446;5.404;2023-03-03T06:47:14;102224.78;;;8.79;49.01
13050;BME280;6591;51.446;5.404;2023-03-03T06:49:41;102233.56;;;8.81;49.39
13050;BME280;6591;51.446;5.404;2023-03-03T06:52:19;102237.97;;;8.83;48.68
13050;BME280;6591;51.446;5.404;2023-03-03T06:54:50;102237.03;;;8.86;49.36
13050;BME280;6591;51.446;5.404;2023-03-03T06:57:32;102242.28;;;8.89;48.65
13050;BME280;6591;51.446;5.404;2023-03-03T07:00:14;102242.28;;;8.89;48.52
13050;BME280;6591;51.446;5.404;2023-03-03T07:02:43;102241.34;;;8.93;48.92
13050;BME280;6591;51.446;5.404;2023-03-03T07:05:15;102251.91;;;8.95;48.58
13050;BME280;6591;51.446;5.404;2023-03-03T07:07:44;102254.47;;;8.99;49.12
13050;BME280;6591;51.446;5.404;2023-03-03T07:10:28;102242.16;;;8.95;48.91
13050;BME280;6591;51.446;5.404;2023-03-03T07:15:47;102257.97;;;9.01;48.69
13050;BME280;6591;51.446;5.404;2023-03-03T07:18:32;102253.50;;;9.05;48.78
13050;BME280;6591;51.446;5.404;2023-03-03T07:21:32;102253.44;;;9.08;48.91
13050;BME280;6591;51.446;5.404;2023-03-03T07:24:26;102256.88;;;9.14;48.84
13050;BME280;6591;51.446;5.404;2023-03-03T07:30:25;102261.16;;;9.21;48.67
13050;BME280;6591;51.446;5.404;2023-03-03T07:32:57;102260.19;;;9.27;48.03
13050;BME280;6591;51.446;5.404;2023-03-03T07:35:43;102254.84;;;9.30;48.63
13050;BME280;6591;51.446;5.404;2023-03-03T07:38:36;102260.06;;;9.33;48.63
13050;BME280;6591;51.446;5.404;2023-03-03T07:41:16;102265.28;;;9.39;48.61
13050;BME280;6591;51.446;5.404;2023-03-03T07:44:06;102266.09;;;9.43;48.69
13050;BME280;6591;51.446;5.404;2023-03-03T07:46:47;102270.41;;;9.48;48.35
13050;BME280;6591;51.446;5.404;2023-03-03T07:51:59;102269.41;;;9.57;48.21
13050;BME280;6591;51.446;5.404;2023-03-03T07:54:39;102275.50;;;9.60;48.18
13050;BME280;6591;51.446;5.404;2023-03-03T08:00:07;102277.94;;;9.72;48.28
13050;BME280;6591;51.446;5.404;2023-03-03T08:05:37;102289.25;;;9.82;48.43
13050;BME280;6591;51.446;5.404;2023-03-03T08:11:07;102284.72;;;9.87;48.09
13050;BME280;6591;51.446;5.404;2023-03-03T08:13:39;102291.69;;;9.94;48.06
13050;BME280;6591;51.446;5.404;2023-03-03T08:18:46;102298.69;;;9.95;47.73
13050;BME280;6591;51.446;5.404;2023-03-03T08:21:20;102301.31;;;9.98;47.92
13050;BME280;6591;51.446;5.404;2023-03-03T08:23:47;102293.25;;;10.04;47.92
13050;BME280;6591;51.446;5.404;2023-03-03T08:26:22;102302.00;;;10.09;47.84
13050;BME280;6591;51.446;5.404;2023-03-03T08:28:50;102307.19;;;10.14;47.73
13050;BME280;6591;51.446;5.404;2023-03-03T08:31:18;102308.84;;;10.21;47.79
13050;BME280;6591;51.446;5.404;2023-03-03T08:34:05;102311.38;;;10.27;47.48
13050;BME280;6591;51.446;5.404;2023-03-03T08:36:33;102305.06;;;10.33;47.86
13050;BME280;6591;51.446;5.404;2023-03-03T08:39:03;102312.06;;;10.37;47.70
13050;BME280;6591;51.446;5.404;2023-03-03T08:41:33;102312.06;;;10.37;47.69
13050;BME280;6591;51.446;5.404;2023-03-03T08:44:01;102319.06;;;10.41;47.52
13050;BME280;6591;51.446;5.404;2023-03-03T08:46:28;102310.94;;;10.47;47.65
13050;BME280;6591;51.446;5.404;2023-03-03T08:48:56;102315.25;;;10.52;47.93
13050;BME280;6591;51.446;5.404;2023-03-03T08:51:23;102316.09;;;10.56;47.46
13050;BME280;6591;51.446;5.404;2023-03-03T08:53:52;102318.69;;;10.57;47.51
13050;BME280;6591;51.446;5.404;2023-03-03T08:56:19;102325.75;;;10.58;46.99
13050;BME280;6591;51.446;5.404;2023-03-03T08:58:46;102333.78;;;10.57;47.08
13050;BME280;6591;51.446;5.404;2023-03-03T09:01:31;102330.28;;;10.53;47.08
13050;BME280;6591;51.446;5.404;2023-03-03T09:03:59;102341.00;;;10.50;46.67
13050;BME280;6591;51.446;5.404;2023-03-03T09:06:26;102335.69;;;10.50;47.20
13050;BME280;6591;51.446;5.404;2023-03-03T09:08:54;102335.69;;;10.50;46.96
13050;BME280;6591;51.446;5.404;2023-03-03T09:11:26;102346.28;;;10.52;47.12
13050;BME280;6591;51.446;5.404;2023-03-03T09:14:14;102334.63;;;10.57;47.12
13050;BME280;6591;51.446;5.404;2023-03-03T09:16:51;102338.91;;;10.65;46.90
13050;BME280;6591;51.446;5.404;2023-03-03T09:19:29;102335.13;;;10.76;46.98
13050;BME280;6591;51.446;5.404;2023-03-03T09:22:23;102336.69;;;10.85;47.09
13050;BME280;6591;51.446;5.404;2023-03-03T09:24:55;102340.84;;;10.96;46.87
13050;BME280;6591;51.446;5.404;2023-03-03T09:27:33;102337.09;;;11.05;46.92
13050;BME280;6591;51.446;5.404;2023-03-03T09:30:29;102340.50;;;11.12;46.39
13050;BME280;6591;51.446;5.404;2023-03-03T09:33:15;102345.66;;;11.19;46.29
13050;BME280;6591;51.446;5.404;2023-03-03T09:35:51;102341.13;;;11.23;46.68
13050;BME280;6591;51.446;5.404;2023-03-03T09:38:32;102341.97;;;11.25;46.05
13050;BME280;6591;51.446;5.404;2023-03-03T09:41:41;102341.97;;;11.25;46.19
13050;BME280;6591;51.446;5.404;2023-03-03T09:47:27;102343.66;;;11.29;46.25
13050;BME280;6591;51.446;5.404;2023-03-03T09:56:33;102345.06;;;11.42;46.24
13050;BME280;6591;51.446;5.404;2023-03-03T10:05:36;102354.53;;;11.55;46.01
13050;BME280;6591;51.446;5.404;2023-03-03T10:15:03;102364.91;;;11.66;45.15
13050;BME280;6591;51.446;5.404;2023-03-03T10:20:29;102364.81;;;11.67;45.62
13050;BME280;6591;51.446;5.404;2023-03-03T10:35:22;102368.16;;;12.43;45.46
13050;BME280;6591;51.446;5.404;2023-03-03T10:53:58;102366.16;;;12.81;44.49
13050;BME280;6591;51.446;5.404;2023-03-03T11:08:00;102344.69;;;13.14;43.60
13050;BME280;6591;51.446;5.404;2023-03-03T11:13:58;102348.84;;;12.94;42.71
13050;BME280;6591;51.446;5.404;2023-03-03T11:16:53;102354.25;;;12.92;42.77
13050;BME280;6591;51.446;5.404;2023-03-03T11:19:42;102338.00;;;13.00;43.31
13050;BME280;6591;51.446;5.404;2023-03-03T11:22:36;102336.53;;;13.19;43.52
13050;BME280;6591;51.446;5.404;2023-03-03T11:31:32;102334.34;;;14.09;43.02
13050;BME280;6591;51.446;5.404;2023-03-03T11:37:09;102334.66;;;14.25;41.75
13050;BME280;6591;51.446;5.404;2023-03-03T11:39:43;102327.13;;;14.36;42.10
13050;BME280;6591;51.446;5.404;2023-03-03T11:42:43;102328.38;;;14.51;42.22
13050;BME280;6591;51.446;5.404;2023-03-03T11:45:24;102334.19;;;14.62;41.67
13050;BME280;6591;51.446;5.404;2023-03-03T11:48:17;102340.38;;;14.64;41.27
13050;BME280;6591;51.446;5.404;2023-03-03T11:51:06;102330.59;;;14.63;40.67
13050;BME280;6591;51.446;5.404;2023-03-03T11:56:46;102331.13;;;14.49;40.78
13050;BME280;6591;51.446;5.404;2023-03-03T12:02:51;102324.13;;;14.45;40.83
13050;BME280;6591;51.446;5.404;2023-03-03T12:05:44;102324.22;;;14.44;40.84
13050;BME280;6591;51.446;5.404;2023-03-03T12:19:47;102316.09;;;15.13;41.74
13050;BME280;6591;51.446;5.404;2023-03-03T12:22:41;102312.91;;;15.47;41.19
13050;BME280;6591;51.446;5.404;2023-03-03T12:25:42;102308.28;;;15.73;40.88
13050;BME280;6591;51.446;5.404;2023-03-03T12:28:24;102305.53;;;15.94;39.99
13050;BME280;6591;51.446;5.404;2023-03-03T12:31:25;102306.25;;;16.18;40.26
13050;BME280;6591;51.446;5.404;2023-03-03T12:34:04;102302.19;;;16.48;40.37
13050;BME280;6591;51.446;5.404;2023-03-03T12:39:44;102294.16;;;16.67;38.23
13050;BME280;6591;51.446;5.404;2023-03-03T12:42:52;102297.22;;;16.39;37.92
13050;BME280;6591;51.446;5.404;2023-03-03T12:45:58;102304.91;;;16.08;37.87
13050;BME280;6591;51.446;5.404;2023-03-03T12:48:44;102303.38;;;15.82;38.17
13050;BME280;6591;51.446;5.404;2023-03-03T12:54:09;102298.59;;;15.70;39.27
13050;BME280;6591;51.446;5.404;2023-03-03T13:15:04;102280.78;;;16.08;38.61
13050;BME280;6591;51.446;5.404;2023-03-03T13:20:49;102278.84;;;16.32;38.77
13050;BME280;6591;51.446;5.404;2023-03-03T13:23:40;102281.88;;;16.43;38.64
13050;BME280;6591;51.446;5.404;2023-03-03T13:26:29;102280.50;;;16.53;38.58
13050;BME280;6591;51.446;5.404;2023-03-03T13:29:24;102268.56;;;16.60;38.05
13050;BME280;6591;51.446;5.404;2023-03-03T13:31:58;102268.66;;;16.59;37.28
13050;BME280;6591;51.446;5.404;2023-03-03T13:34:42;102277.19;;;16.48;37.36
13050;BME280;6591;51.446;5.404;2023-03-03T13:37:31;102269.47;;;16.40;37.60
13050;BME280;6591;51.446;5.404;2023-03-03T13:45:55;102268.97;;;16.51;37.62
13050;BME280;6591;51.446;5.404;2023-03-03T14:06:25;102248.94;;;16.78;37.96
13050;BME280;6591;51.446;5.404;2023-03-03T14:09:33;102247.53;;;16.88;37.85
13050;BME280;6591;51.446;5.404;2023-03-03T14:15:35;102249.63;;;16.82;36.75
13050;BME280;6591;51.446;5.404;2023-03-03T14:18:28;102241.00;;;16.75;37.31
13050;BME280;6591;51.446;5.404;2023-03-03T14:21:08;102240.59;;;16.84;37.36
13050;BME280;6591;51.446;5.404;2023-03-03T14:24:03;102241.06;;;16.92;37.06
13050;BME280;6591;51.446;5.404;2023-03-03T14:26:56;102244.56;;;16.94;37.27
13050;BME280;6591;51.446;5.404;2023-03-03T14:32:02;102240.19;;;16.92;36.43
13050;BME280;6591;51.446;5.404;2023-03-03T14:34:58;102237.03;;;16.84;36.31
13050;BME280;6591;51.446;5.404;2023-03-03T14:37:42;102236.44;;;16.77;36.22
13050;BME280;6591;51.446;5.404;2023-03-03T14:40:34;102228.63;;;16.73;36.30
13050;BME280;6591;51.446;5.404;2023-03-03T14:43:07;102228.47;;;16.76;36.83
13050;BME280;6591;51.446;5.404;2023-03-03T14:45:45;102229.22;;;16.79;36.85
13050;BME280;6591;51.446;5.404;2023-03-03T14:50:58;102219.41;;;16.78;36.52
13050;BME280;6591;51.446;5.404;2023-03-03T14:53:41;102221.28;;;16.76;36.39
13050;BME280;6591;51.446;5.404;2023-03-03T14:56:27;102223.09;;;16.76;36.46
13050;BME280;6591;51.446;5.404;2023-03-03T14:59:17;102222.97;;;16.79;36.70
13050;BME280;6591;51.446;5.404;2023-03-03T15:01:56;102220.94;;;16.84;36.49
13050;BME280;6591;51.446;5.404;2023-03-03T15:04:27;102222.50;;;16.88;36.60
13050;BME280;6591;51.446;5.404;2023-03-03T15:06:56;102216.28;;;16.87;36.59
13050;BME280;6591;51.446;5.404;2023-03-03T15:09:54;102214.19;;;16.75;36.50
13050;BME280;6591;51.446;5.404;2023-03-03T15:12:23;102208.91;;;16.74;35.98
13050;BME280;6591;51.446;5.404;2023-03-03T15:17:56;102201.66;;;16.57;36.05
13050;BME280;6591;51.446;5.404;2023-03-03T15:23:29;102193.66;;;16.56;36.47
13050;BME280;6591;51.446;5.404;2023-03-03T15:26:29;102197.38;;;16.53;36.06
13050;BME280;6591;51.446;5.404;2023-03-03T15:29:37;102196.88;;;16.45;36.31
13050;BME280;6591;51.446;5.404;2023-03-03T15:32:38;102190.16;;;16.36;36.43
13050;BME280;6591;51.446;5.404;2023-03-03T15:35:43;102193.16;;;16.29;36.16
13050;BME280;6591;51.446;5.404;2023-03-03T15:41:22;102204.78;;;16.10;35.93
13050;BME280;6591;51.446;5.404;2023-03-03T15:55:25;102197.34;;;15.78;36.55
13050;BME280;6591;51.446;5.404;2023-03-03T16:03:59;102188.91;;;15.47;36.12
13050;BME280;6591;51.446;5.404;2023-03-03T16:12:56;102183.66;;;15.23;36.98
13050;BME280;6591;51.446;5.404;2023-03-03T16:35:47;102180.59;;;15.33;36.75
13050;BME280;6591;51.446;5.404;2023-03-03T16:38:37;102185.16;;;15.31;36.79
13050;BME280;6591;51.446;5.404;2023-03-03T16:41:24;102190.56;;;15.29;36.75
13050;BME280;6591;51.446;5.404;2023-03-03T16:44:15;102196.06;;;15.26;36.73
13050;BME280;6591;51.446;5.404;2023-03-03T16:46:52;102198.78;;;15.24;37.10
13050;BME280;6591;51.446;5.404;2023-03-03T16:52:46;102194.81;;;15.13;37.01
13050;BME280;6591;51.446;5.404;2023-03-03T16:55:30;102193.16;;;15.10;37.15
13050;BME280;6591;51.446;5.404;2023-03-03T16:58:21;102191.66;;;15.03;36.97
13050;BME280;6591;51.446;5.404;2023-03-03T17:00:54;102198.81;;;15.03;37.08
13050;BME280;6591;51.446;5.404;2023-03-03T17:06:28;102202.75;;;14.94;36.96
13050;BME280;6591;51.446;5.404;2023-03-03T17:10:07;102205.81;;;14.85;37.10
13050;BME280;6591;51.446;5.404;2023-03-03T17:16:03;102213.41;;;14.74;37.36
13050;BME280;6591;51.446;5.404;2023-03-03T17:24:51;102219.06;;;14.66;37.26
13050;BME280;6591;51.446;5.404;2023-03-03T17:33:40;102234.97;;;14.48;37.57
13050;BME280;6591;51.446;5.404;2023-03-03T17:39:49;102240.72;;;14.37;37.87
13050;BME280;6591;51.446;5.404;2023-03-03T17:45:38;102242.66;;;14.32;38.08
13050;BME280;6591;51.446;5.404;2023-03-03T17:51:14;102251.91;;;14.23;37.89
13050;BME280;6591;51.446;5.404;2023-03-03T18:00:02;102267.38;;;14.14;37.90
13050;BME280;6591;51.446;5.404;2023-03-03T18:05:37;102265.75;;;14.10;37.90
13050;BME280;6591;51.446;5.404;2023-03-03T18:23:37;102282.34;;;13.94;37.76
13050;BME280;6591;51.446;5.404;2023-03-03T18:26:41;102283.41;;;13.90;37.84
13050;BME280;6591;51.446;5.404;2023-03-03T18:34:26;102290.56;;;13.88;38.01
13050;BME280;6591;51.446;5.404;2023-03-03T18:42:41;102302.69;;;13.74;38.06
13050;BME280;6591;51.446;5.404;2023-03-03T18:48:12;102306.63;;;13.62;38.35
13050;BME280;6591;51.446;5.404;2023-03-03T18:50:47;102300.50;;;13.60;38.16
13050;BME280;6591;51.446;5.404;2023-03-03T18:53:29;102305.03;;;13.56;37.79
13050;BME280;6591;51.446;5.404;2023-03-03T18:55:59;102296.16;;;13.56;38.15